sensor_id;sensor_type;location;lat;lon;timestamp;temperature;humidity
6439;DHT22;3252;52.540;13.290;2023-04-05T00:00:56;1.00;99.90
6439;DHT22;3252;52.540;13.290;2023-04-05T00:02:59;1.00;99.90
6439;DHT22;3252;52.540;13.290;2023-04-05T00:05:02;0.90;99.90
6439;DHT22;3252;52.540;13.290;2023-04-05T00:07:08;1.00;99.90
6439;DHT22;3252;52.540;13.290;2023-04-05T00:09:12;1.00;99.90
6439;DHT22;3252;52.540;13.290;2023-04-05T00:11:14;1.00;99.90
6439;DHT22;3252;52.540;13.290;2023-04-05T00:13:17;1.00;99.90
6439;DHT22;3252;52.540;13.290;2023-04-05T00:15:20;1.00;99.90
6439;DHT22;3252;52.540;13.290;2023-04-05T00:17:23;0.90;99.90
6439;DHT22;3252;52.540;13.290;2023-04-05T00:19:26;1.00;99.90
6439;DHT22;3252;52.540;13.290;2023-04-05T00:21:28;0.90;99.90
6439;DHT22;3252;52.540;13.290;2023-04-05T00:23:30;0.90;99.90
6439;DHT22;3252;52.540;13.290;2023-04-05T00:25:39;0.90;99.90
6439;DHT22;3252;52.540;13.290;2023-04-05T00:27:42;0.90;99.90
6439;DHT22;3252;52.540;13.290;2023-04-05T00:29:45;0.90;99.90
6439;DHT22;3252;52.540;13.290;2023-04-05T00:31:47;0.90;99.90
6439;DHT22;3252;52.540;13.290;2023-04-05T00:33:51;0.90;99.90
6439;DHT22;3252;52.540;13.290;2023-04-05T00:35:54;0.90;99.90
6439;DHT22;3252;52.540;13.290;2023-04-05T00:37:56;0.90;99.90
6439;DHT22;3252;52.540;13.290;2023-04-05T00:39:58;0.90;99.90
6439;DHT22;3252;52.540;13.290;2023-04-05T00:42:01;0.80;99.90
6439;DHT22;3252;52.540;13.290;2023-04-05T00:44:04;0.80;99.90
6439;DHT22;3252;52.540;13.290;2023-04-05T00:46:08;0.70;99.90
6439;DHT22;3252;52.540;13.290;2023-04-05T00:48:10;0.70;99.90
6439;DHT22;3252;52.540;13.290;2023-04-05T00:50:15;0.70;99.90
6439;DHT22;3252;52.540;13.290;2023-04-05T00:52:18;0.70;99.90
6439;DHT22;3252;52.540;13.290;2023-04-05T00:54:23;0.70;99.90
6439;DHT22;3252;52.540;13.290;2023-04-05T00:56:25;0.70;99.90
6439;DHT22;3252;52.540;13.290;2023-04-05T00:58:28;0.70;99.90
6439;DHT22;3252;52.540;13.290;2023-04-05T01:00:30;0.80;99.90
6439;DHT22;3252;52.540;13.290;2023-04-05T01:02:35;0.80;99.90
6439;DHT22;3252;52.540;13.290;2023-04-05T01:04:40;0.80;99.90
6439;DHT22;3252;52.540;13.290;2023-04-05T01:07:02;0.70;99.90
6439;DHT22;3252;52.540;13.290;2023-04-05T01:09:13;0.70;99.90
6439;DHT22;3252;52.540;13.290;2023-04-05T01:11:17;0.70;99.90
6439;DHT22;3252;52.540;13.290;2023-04-05T01:13:20;0.60;99.90
6439;DHT22;3252;52.540;13.290;2023-04-05T01:15:22;0.60;99.90
6439;DHT22;3252;52.540;13.290;2023-04-05T01:17:26;0.60;99.90
6439;DHT22;3252;52.540;13.290;2023-04-05T01:19:29;0.60;99.90
6439;DHT22;3252;52.540;13.290;2023-04-05T01:24:22;0.50;99.90
6439;DHT22;3252;52.540;13.290;2023-04-05T01:26:50;0.50;99.90
6439;DHT22;3252;52.540;13.290;2023-04-05T01:31:38;0.50;99.90
6439;DHT22;3252;52.540;13.290;2023-04-05T01:33:46;0.50;99.90
6439;DHT22;3252;52.540;13.290;2023-04-05T01:35:55;0.50;99.90
6439;DHT22;3252;52.540;13.290;2023-04-05T01:38:03;0.40;99.90
6439;DHT22;3252;52.540;13.290;2023-04-05T01:40:07;0.40;99.90
6439;DHT22;3252;52.540;13.290;2023-04-05T01:42:10;0.50;99.90
6439;DHT22;3252;52.540;13.290;2023-04-05T01:44:14;0.40;99.90
6439;DHT22;3252;52.540;13.290;2023-04-05T01:46:16;0.40;99.90
6439;DHT22;3252;52.540;13.290;2023-04-05T01:48:20;0.40;99.90
6439;DHT22;3252;52.540;13.290;2023-04-05T01:50:22;0.30;99.90
6439;DHT22;3252;52.540;13.290;2023-04-05T01:52:25;0.30;99.90
6439;DHT22;3252;52.540;13.290;2023-04-05T01:54:27;0.30;99.90
6439;DHT22;3252;52.540;13.290;2023-04-05T01:56:30;0.30;99.90
6439;DHT22;3252;52.540;13.290;2023-04-05T01:58:32;0.30;99.90
6439;DHT22;3252;52.540;13.290;2023-04-05T02:00:34;0.30;99.90
6439;DHT22;3252;52.540;13.290;2023-04-05T02:02:36;0.20;99.90
6439;DHT22;3252;52.540;13.290;2023-04-05T02:04:40;0.20;99.90
6439;DHT22;3252;52.540;13.290;2023-04-05T02:06:44;0.20;99.90
6439;DHT22;3252;52.540;13.290;2023-04-05T02:08:46;0.10;99.90
6439;DHT22;3252;52.540;13.290;2023-04-05T02:10:52;0.10;99.90
6439;DHT22;3252;52.540;13.290;2023-04-05T02:12:54;0.20;99.90
6439;DHT22;3252;52.540;13.290;2023-04-05T02:14:56;0.10;99.90
6439;DHT22;3252;52.540;13.290;2023-04-05T02:16:58;0.10;99.90
6439;DHT22;3252;52.540;13.290;2023-04-05T02:19:03;0.10;99.90
6439;DHT22;3252;52.540;13.290;2023-04-05T02:21:08;0.10;99.90
6439;DHT22;3252;52.540;13.290;2023-04-05T02:23:11;0.10;99.90
6439;DHT22;3252;52.540;13.290;2023-04-05T02:25:13;0.10;99.90
6439;DHT22;3252;52.540;13.290;2023-04-05T02:27:15;0.20;99.90
6439;DHT22;3252;52.540;13.290;2023-04-05T02:29:17;0.20;99.90
6439;DHT22;3252;52.540;13.290;2023-04-05T02:31:20;0.20;99.90
6439;DHT22;3252;52.540;13.290;2023-04-05T02:33:22;0.20;99.90
6439;DHT22;3252;52.540;13.290;2023-04-05T02:35:24;0.20;99.90
6439;DHT22;3252;52.540;13.290;2023-04-05T02:37:27;0.20;99.90
6439;DHT22;3252;52.540;13.290;2023-04-05T02:39:30;0.20;99.90
6439;DHT22;3252;52.540;13.290;2023-04-05T02:41:32;0.20;99.90
6439;DHT22;3252;52.540;13.290;2023-04-05T02:43:35;0.20;99.90
6439;DHT22;3252;52.540;13.290;2023-04-05T02:45:37;0.30;99.90
6439;DHT22;3252;52.540;13.290;2023-04-05T02:47:39;0.30;99.90
6439;DHT22;3252;52.540;13.290;2023-04-05T02:49:42;0.30;99.90
6439;DHT22;3252;52.540;13.290;2023-04-05T02:51:44;0.30;99.90
6439;DHT22;3252;52.540;13.290;2023-04-05T02:53:48;0.30;99.90
6439;DHT22;3252;52.540;13.290;2023-04-05T02:55:54;0.30;99.90
6439;DHT22;3252;52.540;13.290;2023-04-05T02:57:58;0.40;99.90
6439;DHT22;3252;52.540;13.290;2023-04-05T03:00:27;0.40;99.90
6439;DHT22;3252;52.540;13.290;2023-04-05T03:02:32;0.50;99.90
6439;DHT22;3252;52.540;13.290;2023-04-05T03:04:37;0.50;99.90
6439;DHT22;3252;52.540;13.290;2023-04-05T03:06:41;0.60;99.90
6439;DHT22;3252;52.540;13.290;2023-04-05T03:08:48;0.60;99.90
6439;DHT22;3252;52.540;13.290;2023-04-05T03:11:00;0.60;99.90
6439;DHT22;3252;52.540;13.290;2023-04-05T03:13:02;0.70;99.90
6439;DHT22;3252;52.540;13.290;2023-04-05T03:15:06;0.70;99.90
6439;DHT22;3252;52.540;13.290;2023-04-05T03:17:14;0.80;99.90
6439;DHT22;3252;52.540;13.290;2023-04-05T03:19:20;0.80;99.90
6439;DHT22;3252;52.540;13.290;2023-04-05T03:21:28;0.90;99.90
6439;DHT22;3252;52.540;13.290;2023-04-05T03:23:40;0.90;99.90
6439;DHT22;3252;52.540;13.290;2023-04-05T03:25:45;0.90;99.90
6439;DHT22;3252;52.540;13.290;2023-04-05T03:27:48;1.00;99.90
6439;DHT22;3252;52.540;13.290;2023-04-05T03:29:52;1.00;99.90
6439;DHT22;3252;52.540;13.290;2023-04-05T03:31:56;1.10;99.90
6439;DHT22;3252;52.540;13.290;2023-04-05T03:33:59;1.10;99.90
6439;DHT22;3252;52.540;13.290;2023-04-05T03:36:07;1.20;99.90
6439;DHT22;3252;52.540;13.290;2023-04-05T03:38:12;1.20;99.90
6439;DHT22;3252;52.540;13.290;2023-04-05T03:40:22;1.20;99.90
6439;DHT22;3252;52.540;13.290;2023-04-05T03:42:27;1.30;99.90
6439;DHT22;3252;52.540;13.290;2023-04-05T03:44:30;1.30;99.90
6439;DHT22;3252;52.540;13.290;2023-04-05T03:46:32;1.30;99.90
6439;DHT22;3252;52.540;13.290;2023-04-05T03:48:38;1.30;99.90
6439;DHT22;3252;52.540;13.290;2023-04-05T03:50:41;1.30;99.90
6439;DHT22;3252;52.540;13.290;2023-04-05T03:52:43;1.30;99.90
6439;DHT22;3252;52.540;13.290;2023-04-05T03:54:46;1.30;99.90
6439;DHT22;3252;52.540;13.290;2023-04-05T03:56:53;1.30;99.90
6439;DHT22;3252;52.540;13.290;2023-04-05T03:58:58;1.30;99.90
6439;DHT22;3252;52.540;13.290;2023-04-05T04:01:02;1.30;99.90
6439;DHT22;3252;52.540;13.290;2023-04-05T04:03:04;1.40;99.90
6439;DHT22;3252;52.540;13.290;2023-04-05T04:05:08;1.40;99.90
6439;DHT22;3252;52.540;13.290;2023-04-05T04:07:10;1.40;99.90
6439;DHT22;3252;52.540;13.290;2023-04-05T04:09:13;1.40;99.90
6439;DHT22;3252;52.540;13.290;2023-04-05T04:11:15;1.40;99.90
6439;DHT22;3252;52.540;13.290;2023-04-05T04:13:18;1.30;99.90
6439;DHT22;3252;52.540;13.290;2023-04-05T04:15:27;1.20;99.90
6439;DHT22;3252;52.540;13.290;2023-04-05T04:17:49;1.10;99.90
6439;DHT22;3252;52.540;13.290;2023-04-05T04:20:12;1.10;99.90
6439;DHT22;3252;52.540;13.290;2023-04-05T04:22:38;1.20;99.90
6439;DHT22;3252;52.540;13.290;2023-04-05T04:24:53;1.10;99.90
6439;DHT22;3252;52.540;13.290;2023-04-05T04:27:26;1.00;99.90
6439;DHT22;3252;52.540;13.290;2023-04-05T04:29:36;1.00;99.90
6439;DHT22;3252;52.540;13.290;2023-04-05T04:31:58;1.00;99.90
6439;DHT22;3252;52.540;13.290;2023-04-05T04:34:14;1.00;99.90
6439;DHT22;3252;52.540;13.290;2023-04-05T04:36:26;1.00;99.90
6439;DHT22;3252;52.540;13.290;2023-04-05T04:38:51;1.10;99.90
6439;DHT22;3252;52.540;13.290;2023-04-05T04:41:09;1.00;99.90
6439;DHT22;3252;52.540;13.290;2023-04-05T04:43:25;1.00;99.90
6439;DHT22;3252;52.540;13.290;2023-04-05T04:45:50;1.00;99.90
6439;DHT22;3252;52.540;13.290;2023-04-05T04:48:16;1.00;99.90
6439;DHT22;3252;52.540;13.290;2023-04-05T04:50:31;1.00;99.90
6439;DHT22;3252;52.540;13.290;2023-04-05T04:52:34;1.10;99.90
6439;DHT22;3252;52.540;13.290;2023-04-05T04:54:36;1.10;99.90
6439;DHT22;3252;52.540;13.290;2023-04-05T04:56:42;1.10;99.90
6439;DHT22;3252;52.540;13.290;2023-04-05T04:58:44;1.20;99.90
6439;DHT22;3252;52.540;13.290;2023-04-05T05:00:46;1.20;99.90
6439;DHT22;3252;52.540;13.290;2023-04-05T05:02:50;1.20;99.90
6439;DHT22;3252;52.540;13.290;2023-04-05T05:04:54;1.20;99.90
6439;DHT22;3252;52.540;13.290;2023-04-05T05:06:58;1.20;99.90
6439;DHT22;3252;52.540;13.290;2023-04-05T05:09:00;1.30;99.90
6439;DHT22;3252;52.540;13.290;2023-04-05T05:11:06;1.30;99.90
6439;DHT22;3252;52.540;13.290;2023-04-05T05:13:08;1.30;99.90
6439;DHT22;3252;52.540;13.290;2023-04-05T05:15:11;1.40;99.90
6439;DHT22;3252;52.540;13.290;2023-04-05T05:17:14;1.40;99.90
6439;DHT22;3252;52.540;13.290;2023-04-05T05:19:16;1.40;99.90
6439;DHT22;3252;52.540;13.290;2023-04-05T05:21:23;1.50;99.90
6439;DHT22;3252;52.540;13.290;2023-04-05T05:23:33;1.50;99.90
6439;DHT22;3252;52.540;13.290;2023-04-05T05:25:37;1.50;99.90
6439;DHT22;3252;52.540;13.290;2023-04-05T05:27:39;1.60;99.90
6439;DHT22;3252;52.540;13.290;2023-04-05T05:29:42;1.60;99.90
6439;DHT22;3252;52.540;13.290;2023-04-05T05:31:44;1.70;99.90
6439;DHT22;3252;52.540;13.290;2023-04-05T05:33:46;1.70;99.90
6439;DHT22;3252;52.540;13.290;2023-04-05T05:35:51;1.80;99.90
6439;DHT22;3252;52.540;13.290;2023-04-05T05:37:54;1.80;99.90
6439;DHT22;3252;52.540;13.290;2023-04-05T05:39:57;1.80;99.90
6439;DHT22;3252;52.540;13.290;2023-04-05T05:41:59;1.90;99.90
6439;DHT22;3252;52.540;13.290;2023-04-05T05:44:02;2.00;99.90
6439;DHT22;3252;52.540;13.290;2023-04-05T05:46:06;2.00;99.90
6439;DHT22;3252;52.540;13.290;2023-04-05T05:48:08;2.10;99.90
6439;DHT22;3252;52.540;13.290;2023-04-05T05:50:10;2.10;99.90
6439;DHT22;3252;52.540;13.290;2023-04-05T05:52:13;2.20;99.90
6439;DHT22;3252;52.540;13.290;2023-04-05T05:54:16;2.20;99.90
6439;DHT22;3252;52.540;13.290;2023-04-05T05:56:19;2.30;99.90
6439;DHT22;3252;52.540;13.290;2023-04-05T05:58:21;2.40;99.90
6439;DHT22;3252;52.540;13.290;2023-04-05T06:00:23;2.40;99.90
6439;DHT22;3252;52.540;13.290;2023-04-05T06:02:25;2.50;99.90
6439;DHT22;3252;52.540;13.290;2023-04-05T06:04:28;2.50;99.60
6439;DHT22;3252;52.540;13.290;2023-04-05T06:06:30;2.60;99.70
6439;DHT22;3252;52.540;13.290;2023-04-05T06:08:34;2.60;99.90
6439;DHT22;3252;52.540;13.290;2023-04-05T06:10:37;2.70;99.90
6439;DHT22;3252;52.540;13.290;2023-04-05T06:12:39;2.80;99.90
6439;DHT22;3252;52.540;13.290;2023-04-05T06:14:42;2.90;99.50
6439;DHT22;3252;52.540;13.290;2023-04-05T06:16:44;3.00;99.10
6439;DHT22;3252;52.540;13.290;2023-04-05T06:18:47;3.10;99.20
6439;DHT22;3252;52.540;13.290;2023-04-05T06:20:49;3.20;98.60
6439;DHT22;3252;52.540;13.290;2023-04-05T06:22:51;3.30;98.10
6439;DHT22;3252;52.540;13.290;2023-04-05T06:24:54;3.40;98.20
6439;DHT22;3252;52.540;13.290;2023-04-05T06:26:58;3.50;97.80
6439;DHT22;3252;52.540;13.290;2023-04-05T06:29:01;3.60;97.40
6439;DHT22;3252;52.540;13.290;2023-04-05T06:31:04;3.60;97.00
6439;DHT22;3252;52.540;13.290;2023-04-05T06:33:06;3.80;96.90
6439;DHT22;3252;52.540;13.290;2023-04-05T06:35:08;3.80;97.10
6439;DHT22;3252;52.540;13.290;2023-04-05T06:37:11;3.90;97.00
6439;DHT22;3252;52.540;13.290;2023-04-05T06:39:13;4.00;97.00
6439;DHT22;3252;52.540;13.290;2023-04-05T06:41:15;4.00;96.90
6439;DHT22;3252;52.540;13.290;2023-04-05T06:43:19;4.10;96.30
6439;DHT22;3252;52.540;13.290;2023-04-05T06:45:22;4.20;96.80
6439;DHT22;3252;52.540;13.290;2023-04-05T06:47:24;4.20;96.10
6439;DHT22;3252;52.540;13.290;2023-04-05T06:49:26;4.20;95.90
6439;DHT22;3252;52.540;13.290;2023-04-05T06:51:28;4.10;96.20
6439;DHT22;3252;52.540;13.290;2023-04-05T06:53:31;4.00;96.20
6439;DHT22;3252;52.540;13.290;2023-04-05T06:55:33;4.20;96.30
6439;DHT22;3252;52.540;13.290;2023-04-05T06:57:35;4.30;96.10
6439;DHT22;3252;52.540;13.290;2023-04-05T06:59:39;4.40;96.80
6439;DHT22;3252;52.540;13.290;2023-04-05T07:01:41;4.50;96.10
6439;DHT22;3252;52.540;13.290;2023-04-05T07:03:44;4.50;95.90
6439;DHT22;3252;52.540;13.290;2023-04-05T07:05:57;4.60;96.00
6439;DHT22;3252;52.540;13.290;2023-04-05T07:08:00;4.60;95.30
6439;DHT22;3252;52.540;13.290;2023-04-05T07:10:03;4.60;95.70
6439;DHT22;3252;52.540;13.290;2023-04-05T07:12:07;4.70;95.90
6439;DHT22;3252;52.540;13.290;2023-04-05T07:14:09;4.60;95.40
6439;DHT22;3252;52.540;13.290;2023-04-05T07:16:13;4.60;96.00
6439;DHT22;3252;52.540;13.290;2023-04-05T07:18:15;4.70;95.80
6439;DHT22;3252;52.540;13.290;2023-04-05T07:20:18;4.90;95.60
6439;DHT22;3252;52.540;13.290;2023-04-05T07:22:20;5.00;95.90
6439;DHT22;3252;52.540;13.290;2023-04-05T07:24:23;5.00;95.10
6439;DHT22;3252;52.540;13.290;2023-04-05T07:26:26;5.10;94.90
6439;DHT22;3252;52.540;13.290;2023-04-05T07:28:29;5.30;95.00
6439;DHT22;3252;52.540;13.290;2023-04-05T07:30:31;5.50;94.60
6439;DHT22;3252;52.540;13.290;2023-04-05T07:32:35;5.80;94.10
6439;DHT22;3252;52.540;13.290;2023-04-05T07:34:37;6.20;93.10
6439;DHT22;3252;52.540;13.290;2023-04-05T07:36:39;6.60;90.60
6439;DHT22;3252;52.540;13.290;2023-04-05T07:38:42;6.90;90.80
6439;DHT22;3252;52.540;13.290;2023-04-05T07:40:44;7.10;85.60
6439;DHT22;3252;52.540;13.290;2023-04-05T07:42:46;7.30;87.40
6439;DHT22;3252;52.540;13.290;2023-04-05T07:44:48;7.30;87.10
6439;DHT22;3252;52.540;13.290;2023-04-05T07:46:51;7.30;87.30
6439;DHT22;3252;52.540;13.290;2023-04-05T07:48:54;7.00;86.00
6439;DHT22;3252;52.540;13.290;2023-04-05T07:51:03;7.20;86.10
6439;DHT22;3252;52.540;13.290;2023-04-05T07:53:05;7.40;86.30
6439;DHT22;3252;52.540;13.290;2023-04-05T07:55:09;7.50;83.50
6439;DHT22;3252;52.540;13.290;2023-04-05T07:57:15;7.60;82.10
6439;DHT22;3252;52.540;13.290;2023-04-05T07:59:18;7.60;83.10
6439;DHT22;3252;52.540;13.290;2023-04-05T08:01:20;7.30;81.30
6439;DHT22;3252;52.540;13.290;2023-04-05T08:03:23;7.50;86.50
6439;DHT22;3252;52.540;13.290;2023-04-05T08:05:28;7.70;82.00
6439;DHT22;3252;52.540;13.290;2023-04-05T08:07:30;7.80;86.70
6439;DHT22;3252;52.540;13.290;2023-04-05T08:09:33;8.00;78.90
6439;DHT22;3252;52.540;13.290;2023-04-05T08:11:36;8.30;82.90
6439;DHT22;3252;52.540;13.290;2023-04-05T08:13:38;8.60;83.10
6439;DHT22;3252;52.540;13.290;2023-04-05T08:15:41;8.80;75.90
6439;DHT22;3252;52.540;13.290;2023-04-05T08:17:43;9.40;76.70
6439;DHT22;3252;52.540;13.290;2023-04-05T08:19:45;10.10;64.30
6439;DHT22;3252;52.540;13.290;2023-04-05T08:21:51;11.20;56.20
6439;DHT22;3252;52.540;13.290;2023-04-05T08:23:54;12.10;51.50
6439;DHT22;3252;52.540;13.290;2023-04-05T08:25:56;11.90;50.40
6439;DHT22;3252;52.540;13.290;2023-04-05T08:27:58;12.10;50.00
6439;DHT22;3252;52.540;13.290;2023-04-05T08:30:00;12.60;48.90
6439;DHT22;3252;52.540;13.290;2023-04-05T08:32:03;13.30;46.10
6439;DHT22;3252;52.540;13.290;2023-04-05T08:34:05;15.00;44.90
6439;DHT22;3252;52.540;13.290;2023-04-05T08:36:09;15.60;43.00
6439;DHT22;3252;52.540;13.290;2023-04-05T08:38:12;16.90;40.50
6439;DHT22;3252;52.540;13.290;2023-04-05T08:40:15;16.10;39.80
6439;DHT22;3252;52.540;13.290;2023-04-05T08:42:18;15.50;40.60
6439;DHT22;3252;52.540;13.290;2023-04-05T08:44:25;16.10;40.20
6439;DHT22;3252;52.540;13.290;2023-04-05T08:46:31;16.00;38.20
6439;DHT22;3252;52.540;13.290;2023-04-05T08:48:34;14.90;39.00
6439;DHT22;3252;52.540;13.290;2023-04-05T08:50:37;15.10;40.20
6439;DHT22;3252;52.540;13.290;2023-04-05T08:52:40;16.00;40.80
6439;DHT22;3252;52.540;13.290;2023-04-05T08:54:52;16.40;40.70
6439;DHT22;3252;52.540;13.290;2023-04-05T08:56:55;16.20;40.30
6439;DHT22;3252;52.540;13.290;2023-04-05T08:59:02;16.00;40.20
6439;DHT22;3252;52.540;13.290;2023-04-05T09:01:05;16.50;40.20
6439;DHT22;3252;52.540;13.290;2023-04-05T09:03:10;16.70;38.50
6439;DHT22;3252;52.540;13.290;2023-04-05T09:05:16;15.90;39.60
6439;DHT22;3252;52.540;13.290;2023-04-05T09:07:19;16.60;40.00
6439;DHT22;3252;52.540;13.290;2023-04-05T09:09:22;17.20;39.40
6439;DHT22;3252;52.540;13.290;2023-04-05T09:11:26;17.20;38.30
6439;DHT22;3252;52.540;13.290;2023-04-05T09:13:30;17.10;39.00
6439;DHT22;3252;52.540;13.290;2023-04-05T09:15:33;17.90;39.10
6439;DHT22;3252;52.540;13.290;2023-04-05T09:17:37;17.60;37.60
6439;DHT22;3252;52.540;13.290;2023-04-05T09:19:40;17.60;38.50
6439;DHT22;3252;52.540;13.290;2023-04-05T09:22:00;16.40;37.80
6439;DHT22;3252;52.540;13.290;2023-04-05T09:24:02;15.90;39.40
6439;DHT22;3252;52.540;13.290;2023-04-05T09:26:16;15.70;38.80
6439;DHT22;3252;52.540;13.290;2023-04-05T09:28:20;15.20;37.70
6439;DHT22;3252;52.540;13.290;2023-04-05T09:30:23;16.40;39.40
6439;DHT22;3252;52.540;13.290;2023-04-05T09:32:26;16.10;38.90
6439;DHT22;3252;52.540;13.290;2023-04-05T09:34:29;17.30;39.40
6439;DHT22;3252;52.540;13.290;2023-04-05T09:36:33;15.90;37.60
6439;DHT22;3252;52.540;13.290;2023-04-05T09:38:42;17.20;37.70
6439;DHT22;3252;52.540;13.290;2023-04-05T09:40:45;17.80;35.30
6439;DHT22;3252;52.540;13.290;2023-04-05T09:42:57;18.10;37.20
6439;DHT22;3252;52.540;13.290;2023-04-05T09:45:01;17.50;37.50
6439;DHT22;3252;52.540;13.290;2023-04-05T09:47:14;17.60;36.10
6439;DHT22;3252;52.540;13.290;2023-04-05T09:49:31;16.60;35.40
6439;DHT22;3252;52.540;13.290;2023-04-05T09:51:35;16.70;36.00
6439;DHT22;3252;52.540;13.290;2023-04-05T09:53:55;15.60;38.10
6439;DHT22;3252;52.540;13.290;2023-04-05T09:56:08;16.50;38.60
6439;DHT22;3252;52.540;13.290;2023-04-05T09:58:11;17.00;36.40
6439;DHT22;3252;52.540;13.290;2023-04-05T10:00:19;15.50;37.70
6439;DHT22;3252;52.540;13.290;2023-04-05T10:02:21;16.90;38.50
6439;DHT22;3252;52.540;13.290;2023-04-05T10:04:23;18.70;36.30
6439;DHT22;3252;52.540;13.290;2023-04-05T10:06:37;18.50;34.90
6439;DHT22;3252;52.540;13.290;2023-04-05T10:08:39;16.90;35.80
6439;DHT22;3252;52.540;13.290;2023-04-05T10:10:46;15.80;36.30
6439;DHT22;3252;52.540;13.290;2023-04-05T10:12:49;15.00;36.70
6439;DHT22;3252;52.540;13.290;2023-04-05T10:14:51;14.40;39.00
6439;DHT22;3252;52.540;13.290;2023-04-05T10:16:59;14.30;39.00
6439;DHT22;3252;52.540;13.290;2023-04-05T10:19:08;14.60;39.90
6439;DHT22;3252;52.540;13.290;2023-04-05T10:21:19;12.70;39.40
6439;DHT22;3252;52.540;13.290;2023-04-05T10:23:27;11.40;41.30
6439;DHT22;3252;52.540;13.290;2023-04-05T10:25:49;10.80;44.10
6439;DHT22;3252;52.540;13.290;2023-04-05T10:27:54;10.90;45.40
6439;DHT22;3252;52.540;13.290;2023-04-05T10:30:03;10.80;46.10
6439;DHT22;3252;52.540;13.290;2023-04-05T10:32:13;10.90;46.40
6439;DHT22;3252;52.540;13.290;2023-04-05T10:34:26;10.80;45.90
6439;DHT22;3252;52.540;13.290;2023-04-05T10:36:36;10.20;46.20
6439;DHT22;3252;52.540;13.290;2023-04-05T10:38:46;10.30;47.30
6439;DHT22;3252;52.540;13.290;2023-04-05T10:40:53;10.20;46.50
6439;DHT22;3252;52.540;13.290;2023-04-05T10:42:56;9.40;48.40
6439;DHT22;3252;52.540;13.290;2023-04-05T10:45:02;9.10;51.10
6439;DHT22;3252;52.540;13.290;2023-04-05T10:47:07;9.20;52.70
6439;DHT22;3252;52.540;13.290;2023-04-05T10:49:21;9.10;52.10
6439;DHT22;3252;52.540;13.290;2023-04-05T10:51:23;9.30;53.00
6439;DHT22;3252;52.540;13.290;2023-04-05T10:53:26;9.00;53.40
6439;DHT22;3252;52.540;13.290;2023-04-05T10:55:29;8.90;53.90
6439;DHT22;3252;52.540;13.290;2023-04-05T10:57:32;8.80;54.10
6439;DHT22;3252;52.540;13.290;2023-04-05T10:59:39;8.50;54.30
6439;DHT22;3252;52.540;13.290;2023-04-05T11:01:42;8.50;56.10
6439;DHT22;3252;52.540;13.290;2023-04-05T11:03:48;8.60;56.20
6439;DHT22;3252;52.540;13.290;2023-04-05T11:06:19;9.20;54.50
6439;DHT22;3252;52.540;13.290;2023-04-05T11:08:21;9.40;52.90
6439;DHT22;3252;52.540;13.290;2023-04-05T11:10:24;9.40;52.10
6439;DHT22;3252;52.540;13.290;2023-04-05T11:13:02;9.30;52.40
6439;DHT22;3252;52.540;13.290;2023-04-05T11:17:39;8.90;55.50
6439;DHT22;3252;52.540;13.290;2023-04-05T11:19:49;8.90;57.20
6439;DHT22;3252;52.540;13.290;2023-04-05T11:22:01;8.70;56.20
6439;DHT22;3252;52.540;13.290;2023-04-05T11:24:05;8.70;56.90
6439;DHT22;3252;52.540;13.290;2023-04-05T11:26:07;8.50;57.10
6439;DHT22;3252;52.540;13.290;2023-04-05T11:28:21;8.20;58.80
6439;DHT22;3252;52.540;13.290;2023-04-05T11:30:45;8.30;68.00
6439;DHT22;3252;52.540;13.290;2023-04-05T11:32:48;8.20;60.60
6439;DHT22;3252;52.540;13.290;2023-04-05T11:34:58;8.50;65.80
6439;DHT22;3252;52.540;13.290;2023-04-05T11:37:02;8.70;68.00
6439;DHT22;3252;52.540;13.290;2023-04-05T11:39:26;8.90;62.50
6439;DHT22;3252;52.540;13.290;2023-04-05T11:41:32;9.20;57.30
6439;DHT22;3252;52.540;13.290;2023-04-05T11:43:35;9.30;53.00
6439;DHT22;3252;52.540;13.290;2023-04-05T11:45:39;9.40;52.20
6439;DHT22;3252;52.540;13.290;2023-04-05T11:47:43;9.50;50.40
6439;DHT22;3252;52.540;13.290;2023-04-05T11:49:48;9.50;52.30
6439;DHT22;3252;52.540;13.290;2023-04-05T11:51:52;9.40;49.70
6439;DHT22;3252;52.540;13.290;2023-04-05T11:53:55;9.20;49.90
6439;DHT22;3252;52.540;13.290;2023-04-05T11:56:06;9.30;49.40
6439;DHT22;3252;52.540;13.290;2023-04-05T11:58:13;9.40;50.60
6439;DHT22;3252;52.540;13.290;2023-04-05T12:00:16;9.40;50.00
6439;DHT22;3252;52.540;13.290;2023-04-05T12:02:20;8.60;55.00
6439;DHT22;3252;52.540;13.290;2023-04-05T12:04:23;8.10;59.20
6439;DHT22;3252;52.540;13.290;2023-04-05T12:06:25;8.10;58.90
6439;DHT22;3252;52.540;13.290;2023-04-05T12:08:37;8.20;60.50
6439;DHT22;3252;52.540;13.290;2023-04-05T12:10:41;8.20;62.30
6439;DHT22;3252;52.540;13.290;2023-04-05T12:12:44;8.10;63.40
6439;DHT22;3252;52.540;13.290;2023-04-05T12:14:47;8.10;69.20
6439;DHT22;3252;52.540;13.290;2023-04-05T12:16:49;8.10;68.70
6439;DHT22;3252;52.540;13.290;2023-04-05T12:18:52;8.20;63.10
6439;DHT22;3252;52.540;13.290;2023-04-05T12:20:55;7.90;62.90
6439;DHT22;3252;52.540;13.290;2023-04-05T12:22:58;7.80;63.10
6439;DHT22;3252;52.540;13.290;2023-04-05T12:25:00;7.80;65.40
6439;DHT22;3252;52.540;13.290;2023-04-05T12:27:05;7.90;66.90
6439;DHT22;3252;52.540;13.290;2023-04-05T12:29:07;7.90;71.60
6439;DHT22;3252;52.540;13.290;2023-04-05T12:31:10;7.90;66.10
6439;DHT22;3252;52.540;13.290;2023-04-05T12:33:12;7.80;67.80
6439;DHT22;3252;52.540;13.290;2023-04-05T12:35:19;7.90;65.10
6439;DHT22;3252;52.540;13.290;2023-04-05T12:37:21;7.90;66.30
6439;DHT22;3252;52.540;13.290;2023-04-05T12:39:28;8.00;75.90
6439;DHT22;3252;52.540;13.290;2023-04-05T12:41:32;7.80;67.20
6439;DHT22;3252;52.540;13.290;2023-04-05T12:43:39;7.70;74.70
6439;DHT22;3252;52.540;13.290;2023-04-05T12:45:42;7.90;70.90
6439;DHT22;3252;52.540;13.290;2023-04-05T12:47:49;8.00;72.50
6439;DHT22;3252;52.540;13.290;2023-04-05T12:49:54;8.10;67.20
6439;DHT22;3252;52.540;13.290;2023-04-05T12:52:00;8.20;67.20
6439;DHT22;3252;52.540;13.290;2023-04-05T12:54:03;8.30;70.00
6439;DHT22;3252;52.540;13.290;2023-04-05T12:56:06;8.00;69.90
6439;DHT22;3252;52.540;13.290;2023-04-05T12:58:09;7.70;70.90
6439;DHT22;3252;52.540;13.290;2023-04-05T13:00:15;7.60;72.10
6439;DHT22;3252;52.540;13.290;2023-04-05T13:02:17;7.80;72.70
6439;DHT22;3252;52.540;13.290;2023-04-05T13:04:20;8.00;71.10
6439;DHT22;3252;52.540;13.290;2023-04-05T13:06:22;8.20;75.70
6439;DHT22;3252;52.540;13.290;2023-04-05T13:08:25;8.60;70.80
6439;DHT22;3252;52.540;13.290;2023-04-05T13:10:27;8.60;59.50
6439;DHT22;3252;52.540;13.290;2023-04-05T13:12:30;8.60;60.00
6439;DHT22;3252;52.540;13.290;2023-04-05T13:14:32;8.90;64.00
6439;DHT22;3252;52.540;13.290;2023-04-05T13:16:35;8.90;61.50
6439;DHT22;3252;52.540;13.290;2023-04-05T13:18:38;9.10;61.30
6439;DHT22;3252;52.540;13.290;2023-04-05T13:20:41;9.30;61.10
6439;DHT22;3252;52.540;13.290;2023-04-05T13:22:53;9.20;61.00
6439;DHT22;3252;52.540;13.290;2023-04-05T13:25:02;9.30;60.60
6439;DHT22;3252;52.540;13.290;2023-04-05T13:27:04;9.30;59.90
6439;DHT22;3252;52.540;13.290;2023-04-05T13:29:07;9.20;56.20
6439;DHT22;3252;52.540;13.290;2023-04-05T13:31:09;9.20;56.40
6439;DHT22;3252;52.540;13.290;2023-04-05T13:33:13;9.00;56.10
6439;DHT22;3252;52.540;13.290;2023-04-05T13:35:16;8.90;56.60
6439;DHT22;3252;52.540;13.290;2023-04-05T13:37:18;9.20;60.60
6439;DHT22;3252;52.540;13.290;2023-04-05T13:39:21;9.40;58.70
6439;DHT22;3252;52.540;13.290;2023-04-05T13:41:23;9.20;57.70
6439;DHT22;3252;52.540;13.290;2023-04-05T13:43:25;9.20;55.20